createdAt,value
2023-03-27T00:00:19.842Z,-0.5
2023-03-27T00:01:26.921Z,-0.5
2023-03-27T00:02:33.658Z,-0.5
2023-03-27T00:03:40.853Z,-0.6
2023-03-27T00:04:47.697Z,-0.6
2023-03-27T00:05:54.828Z,-0.6
2023-03-27T00:07:01.976Z,-0.6
2023-03-27T00:08:08.511Z,-0.6
2023-03-27T00:10:23.018Z,-0.7
2023-03-27T00:11:29.842Z,-0.7
2023-03-27T00:12:36.941Z,-0.7
2023-03-27T00:13:49.426Z,-0.7
2023-03-27T00:14:50.669Z,-0.7
2023-03-27T00:15:57.728Z,-0.7
2023-03-27T00:17:04.966Z,-0.7
2023-03-27T00:18:11.960Z,-0.7
2023-03-27T00:19:18.532Z,-0.7
2023-03-27T00:20:25.704Z,-0.6
2023-03-27T00:21:32.753Z,-0.6
2023-03-27T00:22:39.876Z,-0.5
2023-03-27T00:23:47.101Z,-0.5
2023-03-27T00:24:53.604Z,-0.5
2023-03-27T00:26:00.576Z,-0.5
2023-03-27T00:27:07.991Z,-0.5
2023-03-27T00:28:15.392Z,-0.5
2023-03-27T00:29:22.008Z,-0.5
2023-03-27T00:30:28.819Z,-0.5
2023-03-27T00:31:35.710Z,-0.5
2023-03-27T00:32:42.832Z,-0.4
2023-03-27T00:33:49.864Z,-0.4
2023-03-27T00:34:57.004Z,-0.4
2023-03-27T00:36:03.690Z,-0.4
2023-03-27T00:37:10.673Z,-0.4
2023-03-27T00:39:24.858Z,-0.3
2023-03-27T00:40:32.112Z,-0.3
2023-03-27T00:41:38.556Z,-0.3
2023-03-27T00:42:45.630Z,-0.3
2023-03-27T00:43:52.768Z,-0.3
2023-03-27T00:44:59.803Z,-0.3
2023-03-27T00:46:07.318Z,-0.4
2023-03-27T00:47:13.539Z,-0.4
2023-03-27T00:48:20.702Z,-0.4
2023-03-27T00:49:27.790Z,-0.4
2023-03-27T00:50:34.935Z,-0.5
2023-03-27T00:51:41.950Z,-0.5
2023-03-27T00:52:48.573Z,-0.6
2023-03-27T00:53:55.764Z,-0.5
2023-03-27T00:55:02.804Z,-0.5
2023-03-27T00:56:09.832Z,-0.5
2023-03-27T00:57:16.992Z,-0.5
2023-03-27T00:58:23.665Z,-0.5
2023-03-27T00:59:30.726Z,-0.5
2023-03-27T01:00:37.812Z,-0.6
2023-03-27T01:01:45.017Z,-0.5
2023-03-27T01:02:52.137Z,-0.5
2023-03-27T01:03:58.670Z,-0.5
2023-03-27T01:05:05.704Z,-0.5
2023-03-27T01:06:12.763Z,-0.5
2023-03-27T01:07:19.933Z,-0.6
2023-03-27T01:08:27.122Z,-0.6
2023-03-27T01:09:33.620Z,-0.6
2023-03-27T01:10:40.698Z,-0.6
2023-03-27T01:11:47.793Z,-0.6
2023-03-27T01:14:02.087Z,-0.6
2023-03-27T01:15:08.587Z,-0.6
2023-03-27T01:16:15.837Z,-0.6
2023-03-27T01:17:22.983Z,-0.7
2023-03-27T01:18:30.042Z,-0.7
2023-03-27T01:19:37.080Z,-0.6
2023-03-27T01:20:43.593Z,-0.7
2023-03-27T01:21:50.742Z,-0.6
2023-03-27T01:22:57.789Z,-0.6
2023-03-27T01:24:04.974Z,-0.6
2023-03-27T01:25:12.096Z,-0.6
2023-03-27T01:26:18.553Z,-0.6
2023-03-27T01:27:25.759Z,-0.6
2023-03-27T01:28:32.929Z,-0.6
2023-03-27T01:29:39.875Z,-0.5
2023-03-27T01:30:47.090Z,-0.5
2023-03-27T01:31:54.800Z,-0.6
2023-03-27T01:33:00.735Z,-0.5
2023-03-27T01:34:07.768Z,-0.5
2023-03-27T01:35:14.906Z,-0.5
2023-03-27T01:36:22.008Z,-0.5
2023-03-27T01:37:28.671Z,-0.5
2023-03-27T01:38:35.731Z,-0.5
2023-03-27T01:39:42.902Z,-0.5
2023-03-27T01:40:49.948Z,-0.5
2023-03-27T01:41:57.042Z,-0.5
2023-03-27T01:43:03.709Z,-0.4
2023-03-27T01:44:10.681Z,-0.4
2023-03-27T01:45:17.781Z,-0.3
2023-03-27T01:46:25.069Z,-0.3
2023-03-27T01:47:32.140Z,-0.3
2023-03-27T01:48:38.726Z,-0.3
2023-03-27T01:49:45.763Z,-0.2
2023-03-27T01:50:52.789Z,-0.3
2023-03-27T01:52:00.110Z,-0.2
2023-03-27T01:53:07.122Z,-0.2
2023-03-27T01:54:13.639Z,-0.2
2023-03-27T01:55:20.687Z,-0.2
2023-03-27T01:56:27.873Z,-0.2
2023-03-27T01:57:35.525Z,-0.2
2023-03-27T01:58:42.107Z,-0.2
2023-03-27T01:59:48.764Z,-0.2
2023-03-27T02:00:55.814Z,-0.2
2023-03-27T02:02:02.948Z,-0.1
2023-03-27T02:03:10.043Z,-0.2
2023-03-27T02:04:17.232Z,-0.1
2023-03-27T02:05:23.684Z,-0.1
2023-03-27T02:07:37.930Z,-0.2
2023-03-27T02:08:44.995Z,-0.2
2023-03-27T02:09:52.128Z,-0.2
2023-03-27T02:10:58.908Z,-0.2
2023-03-27T02:12:05.781Z,-0.2
2023-03-27T02:13:12.895Z,-0.3
2023-03-27T02:14:20.027Z,-0.4
2023-03-27T02:15:26.693Z,-0.4
2023-03-27T02:17:40.761Z,-0.4
2023-03-27T02:18:47.914Z,-0.4
2023-03-27T02:19:55.038Z,-0.4
2023-03-27T02:21:02.105Z,-0.5
2023-03-27T02:22:08.706Z,-0.5
2023-03-27T02:23:15.809Z,-0.5
2023-03-27T02:24:22.951Z,-0.5
2023-03-27T02:25:30.002Z,-0.5
2023-03-27T02:26:37.173Z,-0.5
2023-03-27T02:27:43.662Z,-0.5
2023-03-27T02:28:50.838Z,-0.5
2023-03-27T02:29:57.913Z,-0.5
2023-03-27T02:31:32.441Z,-0.5
2023-03-27T02:32:11.658Z,-0.5
2023-03-27T02:33:18.771Z,-0.5
2023-03-27T02:34:25.785Z,-0.5
2023-03-27T02:35:33.604Z,-0.6
2023-03-27T02:36:40.032Z,-0.6
2023-03-27T02:37:46.767Z,-0.7
2023-03-27T02:38:53.792Z,-0.8
2023-03-27T02:40:00.861Z,-0.8
2023-03-27T02:41:08.027Z,-0.8
2023-03-27T02:42:14.996Z,-0.8
2023-03-27T02:43:22.734Z,-0.9
2023-03-27T02:44:28.758Z,-0.8
2023-03-27T02:45:35.934Z,-0.8
2023-03-27T02:46:43.006Z,-0.8
2023-03-27T02:47:50.191Z,-0.9
2023-03-27T02:48:56.676Z,-0.9
2023-03-27T02:50:03.824Z,-0.9
2023-03-27T02:51:10.784Z,-0.9
2023-03-27T02:52:17.920Z,-0.9
2023-03-27T02:53:25.145Z,-0.8
2023-03-27T02:54:31.632Z,-0.9
2023-03-27T02:55:38.725Z,-0.8
2023-03-27T02:56:45.964Z,-0.9
2023-03-27T02:57:52.949Z,-0.8
2023-03-27T02:59:00.234Z,-0.8
2023-03-27T03:00:06.647Z,-0.9
2023-03-27T03:01:13.826Z,-0.8
2023-03-27T03:02:20.985Z,-0.8
2023-03-27T03:03:28.229Z,-0.9
2023-03-27T03:04:35.033Z,-0.9
2023-03-27T03:05:41.639Z,-0.9
2023-03-27T03:06:48.814Z,-0.9
2023-03-27T03:07:55.873Z,-0.9
2023-03-27T03:09:03.006Z,-0.9
2023-03-27T03:10:10.123Z,-0.9
2023-03-27T03:11:16.707Z,-0.9
2023-03-27T03:12:23.737Z,-0.9
2023-03-27T03:13:30.960Z,-0.9
2023-03-27T03:14:37.921Z,-1
2023-03-27T03:15:45.141Z,-1
2023-03-27T03:16:51.760Z,-1
2023-03-27T03:17:58.763Z,-1
2023-03-27T03:19:05.935Z,-1
2023-03-27T03:21:21.440Z,-1
2023-03-27T03:22:26.645Z,-1
2023-03-27T03:23:33.791Z,-1
2023-03-27T03:24:40.859Z,-1.1
2023-03-27T03:25:48.049Z,-1.1
2023-03-27T03:26:55.163Z,-1.1
2023-03-27T03:28:01.733Z,-1.1
2023-03-27T03:29:09.723Z,-1.1
2023-03-27T03:30:17.008Z,-1.2
2023-03-27T03:31:23.082Z,-1.3
2023-03-27T03:32:30.097Z,-1.4
2023-03-27T03:33:36.754Z,-1.4
2023-03-27T03:35:50.937Z,-1.4
2023-03-27T03:36:57.992Z,-1.4
2023-03-27T03:38:05.174Z,-1.4
2023-03-27T03:39:12.329Z,-1.3
2023-03-27T03:40:18.750Z,-1.3
2023-03-27T03:41:25.962Z,-1.3
2023-03-27T03:42:33.009Z,-1.3
2023-03-27T03:43:40.166Z,-1.3
2023-03-27T03:44:46.715Z,-1.3
2023-03-27T03:45:53.921Z,-1.3
2023-03-27T03:47:00.899Z,-1.3
2023-03-27T03:48:08.070Z,-1.2
2023-03-27T03:49:15.200Z,-1.3
2023-03-27T03:50:21.866Z,-1.3
2023-03-27T03:51:28.858Z,-1.2
2023-03-27T03:52:35.998Z,-1.3
2023-03-27T03:53:43.049Z,-1.2
2023-03-27T03:54:50.122Z,-1.2
2023-03-27T03:55:56.743Z,-1.3
2023-03-27T03:57:03.934Z,-1.3
2023-03-27T03:58:10.966Z,-1.3
2023-03-27T03:59:18.036Z,-1.3
2023-03-27T04:00:25.202Z,-1.3
2023-03-27T04:02:38.909Z,-1.3
2023-03-27T04:03:46.034Z,-1.3
2023-03-27T04:04:53.099Z,-1.3
2023-03-27T04:06:00.108Z,-1.3
2023-03-27T04:07:06.714Z,-1.4
2023-03-27T04:08:13.940Z,-1.4
2023-03-27T04:09:20.964Z,-1.4
2023-03-27T04:10:28.053Z,-1.4
2023-03-27T04:11:35.738Z,-1.4
2023-03-27T04:12:41.759Z,-1.4
2023-03-27T04:13:48.827Z,-1.5
2023-03-27T04:14:55.928Z,-1.4
2023-03-27T04:16:03.040Z,-1.5
2023-03-27T04:17:10.155Z,-1.5
2023-03-27T04:18:16.854Z,-1.5
2023-03-27T04:19:23.849Z,-1.4
2023-03-27T04:20:30.983Z,-1.5
2023-03-27T04:21:38.068Z,-1.4
2023-03-27T04:22:45.143Z,-1.5
2023-03-27T04:24:58.950Z,-1.5
2023-03-27T04:26:06.073Z,-1.4
2023-03-27T04:27:13.073Z,-1.4
2023-03-27T04:28:20.113Z,-1.4
2023-03-27T04:29:26.821Z,-1.4
2023-03-27T04:30:33.928Z,-1.4
2023-03-27T04:31:41.017Z,-1.4
2023-03-27T04:32:48.167Z,-1.5
2023-03-27T04:33:55.255Z,-1.5
2023-03-27T04:35:01.747Z,-1.5
2023-03-27T04:36:08.994Z,-1.5
2023-03-27T04:37:15.955Z,-1.5
2023-03-27T04:38:23.130Z,-1.5
2023-03-27T04:39:30.187Z,-1.5
2023-03-27T04:40:36.760Z,-1.5
2023-03-27T04:41:43.923Z,-1.5
2023-03-27T04:42:51.458Z,-1.4
2023-03-27T04:43:58.130Z,-1.4
2023-03-27T04:45:05.217Z,-1.4
2023-03-27T04:46:11.845Z,-1.4
2023-03-27T04:47:18.871Z,-1.4
2023-03-27T04:48:26.054Z,-1.4
2023-03-27T04:49:33.122Z,-1.4
2023-03-27T04:50:40.189Z,-1.4
2023-03-27T04:51:46.832Z,-1.4
2023-03-27T04:52:53.940Z,-1.5
2023-03-27T04:54:01.077Z,-1.5
2023-03-27T04:55:08.047Z,-1.5
2023-03-27T04:56:15.241Z,-1.5
2023-03-27T04:57:21.872Z,-1.5
2023-03-27T04:58:28.964Z,-1.5
2023-03-27T04:59:36.083Z,-1.5
2023-03-27T05:00:43.179Z,-1.5
2023-03-27T05:01:50.252Z,-1.5
2023-03-27T05:04:03.964Z,-1.5
2023-03-27T05:05:11.040Z,-1.6
2023-03-27T05:06:18.111Z,-1.6
2023-03-27T05:07:25.229Z,-1.6
2023-03-27T05:08:31.897Z,-1.6
2023-03-27T05:09:38.923Z,-1.6
2023-03-27T05:10:46.039Z,-1.6
2023-03-27T05:11:53.121Z,-1.6
2023-03-27T05:12:59.716Z,-1.6
2023-03-27T05:14:06.985Z,-1.7
2023-03-27T05:15:13.898Z,-1.8
2023-03-27T05:16:21.082Z,-1.8
2023-03-27T05:17:28.195Z,-1.8
2023-03-27T05:18:35.300Z,-1.8
2023-03-27T05:19:41.863Z,-1.8
2023-03-27T05:20:48.970Z,-1.8
2023-03-27T05:21:56.055Z,-1.7
2023-03-27T05:23:03.119Z,-1.7
2023-03-27T05:24:10.198Z,-1.8
2023-03-27T05:25:16.818Z,-1.8
2023-03-27T05:26:23.945Z,-1.8
2023-03-27T05:28:38.191Z,-1.8
2023-03-27T05:29:47.143Z,-1.8
2023-03-27T05:30:51.930Z,-1.7
2023-03-27T05:32:01.160Z,-1.8
2023-03-27T05:33:06.086Z,-1.8
2023-03-27T05:34:38.857Z,-1.8
2023-03-27T05:35:20.334Z,-1.8
2023-03-27T05:36:26.901Z,-1.8
2023-03-27T05:37:33.937Z,-1.8
2023-03-27T05:38:41.110Z,-1.8
2023-03-27T05:39:48.637Z,-1.8
2023-03-27T05:40:55.572Z,-1.8
2023-03-27T05:42:01.828Z,-1.8
2023-03-27T05:43:08.993Z,-1.8
2023-03-27T05:44:16.187Z,-1.8
2023-03-27T05:45:23.246Z,-1.8
2023-03-27T05:46:30.314Z,-1.8
2023-03-27T05:47:36.948Z,-1.8
2023-03-27T05:48:44.000Z,-1.8
2023-03-27T05:49:51.076Z,-1.8
2023-03-27T05:50:58.272Z,-1.8
2023-03-27T05:52:05.267Z,-1.8
2023-03-27T05:53:11.887Z,-1.8
2023-03-27T05:54:18.962Z,-1.8
2023-03-27T05:55:27.750Z,-1.7
2023-03-27T05:56:33.241Z,-1.7
2023-03-27T05:57:40.233Z,-1.7
2023-03-27T05:58:46.885Z,-1.7
2023-03-27T05:59:54.006Z,-1.7
2023-03-27T06:01:01.038Z,-1.6
2023-03-27T06:02:08.268Z,-1.6
2023-03-27T06:03:15.490Z,-1.6
2023-03-27T06:04:21.953Z,-1.5
2023-03-27T06:05:28.984Z,-1.5
2023-03-27T06:06:36.117Z,-1.5
2023-03-27T06:07:43.760Z,-1.5
2023-03-27T06:08:49.732Z,-1.5
2023-03-27T06:09:57.005Z,-1.5
2023-03-27T06:11:06.176Z,-1.5
2023-03-27T06:12:11.076Z,-1.4
2023-03-27T06:13:18.384Z,-1.5
2023-03-27T06:14:24.775Z,-1.5
2023-03-27T06:15:31.975Z,-1.5
2023-03-27T06:16:39.017Z,-1.5
2023-03-27T06:17:46.149Z,-1.5
2023-03-27T06:18:53.306Z,-1.5
2023-03-27T06:19:59.788Z,-1.4
2023-03-27T06:21:06.954Z,-1.5
2023-03-27T06:22:14.174Z,-1.4
2023-03-27T06:23:21.158Z,-1.4
2023-03-27T06:24:28.196Z,-1.4
2023-03-27T06:25:34.808Z,-1.4
2023-03-27T06:26:41.892Z,-1.4
2023-03-27T06:27:49.047Z,-1.3
2023-03-27T06:28:56.191Z,-1.3
2023-03-27T06:30:03.301Z,-1.3
2023-03-27T06:31:09.867Z,-1.3
2023-03-27T06:32:16.990Z,-1.2
2023-03-27T06:33:24.169Z,-1.2
2023-03-27T06:34:31.116Z,-1.2
2023-03-27T06:35:38.228Z,-1.2
2023-03-27T06:36:44.863Z,-1.2
2023-03-27T06:37:51.946Z,-1.2
2023-03-27T06:38:59.049Z,-1.2
2023-03-27T06:40:06.132Z,-1.2
2023-03-27T06:41:13.317Z,-1.1
2023-03-27T06:42:19.858Z,-1.1
2023-03-27T06:43:26.986Z,-1.1
2023-03-27T06:44:34.112Z,-1.1
2023-03-27T06:45:41.213Z,-1
2023-03-27T06:46:48.325Z,-1
2023-03-27T06:47:57.758Z,-1
2023-03-27T06:49:02.213Z,-0.9
2023-03-27T06:50:09.573Z,-0.9
2023-03-27T06:51:16.141Z,-0.9
2023-03-27T06:52:23.328Z,-0.9
2023-03-27T06:53:33.181Z,-0.8
2023-03-27T06:54:37.002Z,-0.8
2023-03-27T06:55:44.046Z,-0.7
2023-03-27T06:56:51.219Z,-0.7
2023-03-27T06:57:58.330Z,-0.6
2023-03-27T06:59:04.875Z,-0.6
2023-03-27T07:00:12.016Z,-0.6
2023-03-27T07:01:19.509Z,-0.6
2023-03-27T07:02:26.300Z,-0.5
2023-03-27T07:03:33.361Z,-0.5
2023-03-27T07:04:40.251Z,-0.4
2023-03-27T07:05:47.059Z,-0.4
2023-03-27T07:06:54.050Z,-0.4
2023-03-27T07:08:11.128Z,-0.3
2023-03-27T07:09:08.403Z,-0.3
2023-03-27T07:10:14.844Z,-0.3
2023-03-27T07:11:21.954Z,-0.3
2023-03-27T07:12:29.043Z,-0.2
2023-03-27T07:13:36.284Z,-0.2
2023-03-27T07:14:43.342Z,-0.2
2023-03-27T07:15:49.953Z,-0.1
2023-03-27T07:16:56.964Z,-0.1
2023-03-27T07:18:04.157Z,-0.1
2023-03-27T07:19:11.270Z,0
2023-03-27T07:20:18.309Z,0
2023-03-27T07:21:24.903Z,0
2023-03-27T07:22:32.058Z,0
2023-03-27T07:23:39.077Z,0
2023-03-27T07:24:46.383Z,0.1
2023-03-27T07:25:53.416Z,0.1
2023-03-27T07:26:59.847Z,0.2
2023-03-27T07:28:07.059Z,0.2
2023-03-27T07:29:14.227Z,0.2
2023-03-27T07:30:21.191Z,0.2
2023-03-27T07:32:37.511Z,0.3
2023-03-27T07:33:42.163Z,0.3
2023-03-27T07:35:56.570Z,0.4
2023-03-27T07:37:03.382Z,0.4
2023-03-27T07:38:09.930Z,0.4
2023-03-27T07:39:17.214Z,0.4
2023-03-27T07:40:36.998Z,0.5
2023-03-27T07:41:31.256Z,0.6
2023-03-27T07:42:38.391Z,0.6
2023-03-27T07:43:45.052Z,0.6
2023-03-27T07:44:52.062Z,0.6
2023-03-27T07:45:59.259Z,0.7
2023-03-27T07:47:06.264Z,0.8
2023-03-27T07:48:13.332Z,0.8
2023-03-27T07:49:19.912Z,0.8
2023-03-27T07:50:27.076Z,0.8
2023-03-27T07:51:34.174Z,0.9
2023-03-27T07:53:10.378Z,0.9
2023-03-27T07:53:48.350Z,1
2023-03-27T07:54:54.978Z,1
2023-03-27T07:56:02.008Z,1
2023-03-27T07:57:09.312Z,1.2
2023-03-27T07:58:16.317Z,1.3
2023-03-27T08:00:30.131Z,1.5
2023-03-27T08:01:37.032Z,1.5
2023-03-27T08:02:44.164Z,1.6
2023-03-27T08:03:51.303Z,1.7
2023-03-27T08:04:58.606Z,1.8
2023-03-27T08:06:04.927Z,2.2
2023-03-27T08:07:12.025Z,2.4
2023-03-27T08:08:19.159Z,2.5
2023-03-27T08:09:26.308Z,2.7
2023-03-27T08:10:33.864Z,3
2023-03-27T08:11:39.971Z,3.1
2023-03-27T08:12:47.029Z,3.2
2023-03-27T08:13:54.189Z,3.2
2023-03-27T08:15:01.404Z,3.3
2023-03-27T08:16:08.341Z,3.3
2023-03-27T08:17:16.630Z,3.3
2023-03-27T08:18:22.167Z,3.3
2023-03-27T08:19:29.230Z,3.3
2023-03-27T08:20:36.244Z,3.3
2023-03-27T08:21:42.915Z,3.3
2023-03-27T08:22:50.077Z,3.3
2023-03-27T08:23:57.879Z,3.3
2023-03-27T08:25:04.251Z,3.3
2023-03-27T08:26:11.314Z,3.4
2023-03-27T08:27:17.824Z,3.4
2023-03-27T08:28:25.032Z,3.4
2023-03-27T08:29:32.020Z,3.5
2023-03-27T08:30:39.241Z,3.5
2023-03-27T08:31:46.363Z,3.5
2023-03-27T08:32:52.954Z,3.4
2023-03-27T08:34:00.110Z,3.4
2023-03-27T08:35:07.177Z,3.3
2023-03-27T08:36:14.818Z,3.3
2023-03-27T08:37:21.340Z,3.3
2023-03-27T08:39:35.021Z,3.3
2023-03-27T08:40:42.233Z,3.3
2023-03-27T08:41:49.237Z,3.3
2023-03-27T08:42:56.291Z,3.3
2023-03-27T08:44:02.888Z,3.3
2023-03-27T08:45:10.042Z,3.3
2023-03-27T08:46:17.145Z,3.4
2023-03-27T08:47:24.315Z,3.4
2023-03-27T08:48:31.421Z,3.4
2023-03-27T08:49:37.951Z,3.5
2023-03-27T08:50:45.053Z,3.4
2023-03-27T08:51:52.258Z,3.5
2023-03-27T08:52:59.266Z,3.5
2023-03-27T08:54:06.500Z,3.5
2023-03-27T08:55:12.931Z,3.5
2023-03-27T08:56:20.049Z,3.5
2023-03-27T08:57:27.731Z,3.5
2023-03-27T08:58:34.248Z,3.5
2023-03-27T08:59:41.300Z,3.5
2023-03-27T09:00:47.855Z,3.6
2023-03-27T09:01:55.098Z,3.7
2023-03-27T09:03:02.271Z,3.7
2023-03-27T09:04:09.228Z,3.7
2023-03-27T09:05:16.315Z,3.8
2023-03-27T09:06:22.945Z,3.9
2023-03-27T09:07:30.076Z,4.1
2023-03-27T09:08:37.197Z,4.3
2023-03-27T09:09:44.214Z,4.4
2023-03-27T09:10:51.332Z,4.5
2023-03-27T09:11:57.971Z,4.6
2023-03-27T09:13:05.130Z,4.7
2023-03-27T09:14:12.160Z,4.7
2023-03-27T09:15:19.318Z,4.8
2023-03-27T09:16:26.496Z,4.8
2023-03-27T09:17:33.098Z,4.8
2023-03-27T09:18:40.136Z,4.9
2023-03-27T09:19:47.198Z,5.1
2023-03-27T09:20:54.248Z,5.1
2023-03-27T09:22:01.414Z,5.2
2023-03-27T09:23:07.892Z,5.3
2023-03-27T09:24:16.780Z,5.3
2023-03-27T09:25:22.226Z,5.2
2023-03-27T09:26:29.310Z,5.1
2023-03-27T09:28:43.052Z,4.9
2023-03-27T09:29:50.082Z,4.9
2023-03-27T09:30:57.210Z,4.9
2023-03-27T09:32:04.420Z,4.9
2023-03-27T09:33:11.405Z,5.1
2023-03-27T09:34:18.127Z,5.2
2023-03-27T09:35:25.155Z,5.3
2023-03-27T09:36:32.224Z,5.3
2023-03-27T09:37:39.226Z,5.3
2023-03-27T09:38:46.461Z,5.2
2023-03-27T09:39:52.951Z,5.2
2023-03-27T09:41:00.032Z,5.1
2023-03-27T09:42:07.911Z,5
2023-03-27T09:43:14.235Z,4.9
2023-03-27T09:44:21.470Z,5
2023-03-27T09:45:28.047Z,5.1
2023-03-27T09:46:35.145Z,5.3
2023-03-27T09:47:42.340Z,5.4
2023-03-27T09:48:49.285Z,5.6
2023-03-27T09:49:56.475Z,5.6
2023-03-27T09:51:06.023Z,5.7
2023-03-27T09:52:10.117Z,5.9
2023-03-27T09:53:17.254Z,6
2023-03-27T09:54:24.372Z,6
2023-03-27T09:55:31.448Z,6
2023-03-27T09:56:38.135Z,6.1
2023-03-27T09:57:45.165Z,6.1
2023-03-27T09:58:52.222Z,5.9
2023-03-27T09:59:59.254Z,5.9
2023-03-27T10:01:06.504Z,6
2023-03-27T10:02:12.976Z,6.1
2023-03-27T10:03:20.099Z,6.1
2023-03-27T10:04:27.407Z,6.2
2023-03-27T10:05:34.290Z,6.2
2023-03-27T10:06:41.486Z,6.1
2023-03-27T10:07:48.032Z,6.1
2023-03-27T10:08:55.249Z,6.1
2023-03-27T10:10:02.331Z,6.1
2023-03-27T10:11:09.274Z,6.1
2023-03-27T10:12:16.500Z,6.1
2023-03-27T10:13:23.068Z,6.2
2023-03-27T10:14:30.120Z,6.3
2023-03-27T10:15:37.333Z,6.3
2023-03-27T10:16:44.407Z,6.2
2023-03-27T10:17:51.504Z,6.3
2023-03-27T10:18:58.110Z,6.3
2023-03-27T10:20:05.268Z,6.3
2023-03-27T10:21:12.285Z,6.4
2023-03-27T10:22:19.304Z,6.4
2023-03-27T10:23:25.987Z,6.4
2023-03-27T10:24:33.101Z,6.4
2023-03-27T10:25:40.198Z,6.5
2023-03-27T10:26:47.396Z,6.6
2023-03-27T10:27:54.339Z,6.7
2023-03-27T10:29:00.967Z,6.6
2023-03-27T10:30:08.184Z,6.6
2023-03-27T10:31:15.167Z,6.7
2023-03-27T10:32:22.225Z,6.6
2023-03-27T10:33:29.391Z,6.6
2023-03-27T10:34:35.920Z,6.7
2023-03-27T10:35:43.094Z,6.7
2023-03-27T10:36:50.218Z,6.8
2023-03-27T10:37:57.319Z,6.8
2023-03-27T10:39:04.471Z,6.8
2023-03-27T10:40:10.997Z,6.8
2023-03-27T10:41:28.798Z,6.9
2023-03-27T10:42:25.254Z,6.8
2023-03-27T10:43:32.282Z,6.8
2023-03-27T10:44:39.379Z,6.8
2023-03-27T10:46:53.256Z,7
2023-03-27T10:48:00.260Z,7.1
2023-03-27T10:49:07.302Z,7.4
2023-03-27T10:50:14.529Z,7.5
2023-03-27T10:51:20.909Z,7.4
2023-03-27T10:52:28.143Z,7.4
2023-03-27T10:53:35.342Z,7.2
2023-03-27T10:54:42.423Z,7.2
2023-03-27T10:55:49.415Z,7
2023-03-27T10:56:56.057Z,6.8
2023-03-27T10:58:03.058Z,6.7
2023-03-27T10:59:10.245Z,6.6
2023-03-27T11:00:17.334Z,6.5
2023-03-27T11:01:24.403Z,6.4
2023-03-27T11:02:31.059Z,6.3
2023-03-27T11:03:38.186Z,6.3
2023-03-27T11:04:45.765Z,6.2
2023-03-27T11:05:52.353Z,6.2
2023-03-27T11:06:59.387Z,6.1
2023-03-27T11:08:05.969Z,6.1
2023-03-27T11:09:13.192Z,6
2023-03-27T11:10:30.071Z,6
2023-03-27T11:11:27.289Z,5.9
2023-03-27T11:12:34.471Z,5.9
2023-03-27T11:13:40.958Z,5.9
2023-03-27T11:14:48.038Z,5.8
2023-03-27T11:15:55.198Z,5.8
2023-03-27T11:17:02.442Z,5.8
2023-03-27T11:18:09.425Z,5.8
2023-03-27T11:19:16.010Z,5.8
2023-03-27T11:20:25.724Z,5.7
2023-03-27T11:21:30.239Z,5.7
2023-03-27T11:22:50.962Z,5.7
2023-03-27T11:23:43.987Z,5.6
2023-03-27T11:24:51.062Z,5.6
2023-03-27T11:25:58.055Z,5.6
2023-03-27T11:27:05.193Z,5.6
2023-03-27T11:28:12.364Z,5.5
2023-03-27T11:29:18.926Z,5.4
2023-03-27T11:30:26.012Z,5.4
2023-03-27T11:31:33.305Z,5.5
2023-03-27T11:32:40.270Z,5.4
2023-03-27T11:33:47.401Z,5.5
2023-03-27T11:34:53.910Z,5.4
2023-03-27T11:36:01.207Z,5.4
2023-03-27T11:37:08.186Z,5.4
2023-03-27T11:38:15.272Z,5.4
2023-03-27T11:39:22.438Z,5.4
2023-03-27T11:40:29.049Z,5.3
2023-03-27T11:41:36.076Z,5.3
2023-03-27T11:42:43.198Z,5.3
2023-03-27T11:43:50.247Z,5.3
2023-03-27T11:44:57.320Z,5.3
2023-03-27T11:46:03.998Z,5.3
2023-03-27T11:47:11.076Z,5.3
2023-03-27T11:48:18.276Z,5.4
2023-03-27T11:50:32.480Z,5.4
2023-03-27T11:51:39.019Z,5.4
2023-03-27T11:52:46.132Z,5.4
2023-03-27T11:53:53.183Z,5.4
2023-03-27T11:55:00.351Z,5.4
2023-03-27T11:56:07.407Z,5.4
2023-03-27T11:57:14.028Z,5.5
2023-03-27T11:58:21.128Z,5.5
2023-03-27T11:59:28.239Z,5.5
2023-03-27T12:00:35.273Z,5.6
2023-03-27T12:01:42.465Z,5.6
2023-03-27T12:02:49.317Z,5.6
2023-03-27T12:03:56.231Z,5.6
2023-03-27T12:05:03.209Z,5.6
2023-03-27T12:06:10.221Z,5.8
2023-03-27T12:07:26.357Z,5.8
2023-03-27T12:08:24.563Z,5.9
2023-03-27T12:09:31.177Z,5.8
2023-03-27T12:10:38.118Z,5.9
2023-03-27T12:11:45.376Z,6
2023-03-27T12:12:52.506Z,6
2023-03-27T12:14:02.021Z,6.1
2023-03-27T12:15:06.049Z,6.3
2023-03-27T12:16:13.242Z,6.4
2023-03-27T12:17:20.339Z,6.5
2023-03-27T12:18:35.309Z,6.6
2023-03-27T12:19:38.509Z,6.7
2023-03-27T12:20:51.928Z,6.7
2023-03-27T12:21:48.166Z,6.7
2023-03-27T12:22:55.376Z,6.7
2023-03-27T12:24:02.476Z,6.7
2023-03-27T12:25:08.936Z,6.7
2023-03-27T12:26:16.223Z,6.6
2023-03-27T12:27:23.186Z,6.5
2023-03-27T12:28:30.304Z,6.4
2023-03-27T12:29:37.376Z,6.3
2023-03-27T12:30:44.082Z,6.2
2023-03-27T12:31:51.283Z,6.1
2023-03-27T12:33:00.039Z,6.1
2023-03-27T12:34:05.441Z,6
2023-03-27T12:35:12.468Z,6
2023-03-27T12:36:19.064Z,6.1
2023-03-27T12:37:26.176Z,6.1
2023-03-27T12:38:33.282Z,6.1
2023-03-27T12:39:40.568Z,6.1
2023-03-27T12:40:47.445Z,6
2023-03-27T12:41:54.032Z,6
2023-03-27T12:43:01.176Z,6
2023-03-27T12:44:08.161Z,6
2023-03-27T12:45:15.385Z,6
2023-03-27T12:46:22.414Z,6
2023-03-27T12:47:28.996Z,6
2023-03-27T12:48:36.235Z,6.1
2023-03-27T12:49:47.564Z,6.1
2023-03-27T12:50:50.274Z,6.2
2023-03-27T12:51:57.491Z,6.2
2023-03-27T12:54:11.201Z,6.2
2023-03-27T12:55:18.182Z,6.2
2023-03-27T12:56:25.365Z,6.1
2023-03-27T12:57:32.649Z,6.1
2023-03-27T12:58:38.999Z,6.2
2023-03-27T12:59:46.140Z,6.2
2023-03-27T13:02:00.449Z,6.3
2023-03-27T13:03:06.996Z,6.4
2023-03-27T13:04:14.142Z,6.3
2023-03-27T13:05:27.326Z,6.4
2023-03-27T13:06:28.377Z,6.3
2023-03-27T13:07:35.354Z,6.3
2023-03-27T13:08:42.453Z,6.3
2023-03-27T13:09:49.145Z,6.3
2023-03-27T13:10:56.392Z,6.3
2023-03-27T13:12:03.728Z,6.3
2023-03-27T13:13:10.337Z,6.3
2023-03-27T13:14:17.427Z,6.3
2023-03-27T13:15:24.125Z,6.3
2023-03-27T13:16:31.289Z,6.2
2023-03-27T13:17:38.417Z,6.3
2023-03-27T13:18:45.348Z,6.3
2023-03-27T13:19:52.519Z,6.3
2023-03-27T13:20:59.086Z,6.3
2023-03-27T13:22:06.147Z,6.3
2023-03-27T13:23:13.359Z,6.4
2023-03-27T13:24:20.421Z,6.4
2023-03-27T13:25:26.976Z,6.4
2023-03-27T13:26:34.133Z,6.4
2023-03-27T13:27:41.206Z,6.4
2023-03-27T13:28:48.414Z,6.5
2023-03-27T13:29:55.363Z,6.4
2023-03-27T13:31:02.101Z,6.4
2023-03-27T13:32:09.106Z,6.4
2023-03-27T13:33:16.160Z,6.3
2023-03-27T13:34:23.397Z,6.4
2023-03-27T13:35:30.476Z,6.3
2023-03-27T13:36:37.077Z,6.3
2023-03-27T13:37:44.241Z,6.3
2023-03-27T13:38:51.361Z,6.3
2023-03-27T13:39:58.245Z,6.3
2023-03-27T13:41:06.304Z,6.3
2023-03-27T13:42:36.880Z,6.3
2023-03-27T13:43:19.040Z,6.3
2023-03-27T13:44:26.178Z,6.3
2023-03-27T13:45:33.298Z,6.3
2023-03-27T13:46:40.683Z,6.3
2023-03-27T13:47:47.097Z,6.3
2023-03-27T13:48:54.226Z,6.3
2023-03-27T13:50:01.957Z,6.3
2023-03-27T13:51:08.345Z,6.3
2023-03-27T13:52:15.493Z,6.4
2023-03-27T13:53:23.803Z,6.5
2023-03-27T13:54:29.210Z,6.6
2023-03-27T13:55:36.281Z,6.6
2023-03-27T13:56:43.300Z,6.6
2023-03-27T13:57:50.452Z,6.5
2023-03-27T13:58:57.153Z,6.5
2023-03-27T14:00:04.345Z,6.6
2023-03-27T14:01:11.363Z,6.5
2023-03-27T14:02:18.448Z,6.5
2023-03-27T14:03:25.534Z,6.5
2023-03-27T14:04:32.036Z,6.5
2023-03-27T14:05:39.070Z,6.5
2023-03-27T14:06:46.324Z,6.5
2023-03-27T14:07:53.391Z,6.5
2023-03-27T14:09:00.516Z,6.5
2023-03-27T14:10:07.231Z,6.5
2023-03-27T14:11:14.108Z,6.5
2023-03-27T14:12:21.186Z,6.5
2023-03-27T14:13:28.293Z,6.5
2023-03-27T14:14:35.502Z,6.5
2023-03-27T14:15:42.610Z,6.5
2023-03-27T14:16:49.317Z,6.5
2023-03-27T14:17:56.217Z,6.5
2023-03-27T14:19:03.712Z,6.4
2023-03-27T14:20:10.505Z,6.5
2023-03-27T14:21:27.575Z,6.5
2023-03-27T14:22:24.264Z,6.4
2023-03-27T14:23:31.301Z,6.4
2023-03-27T14:24:38.324Z,6.3
2023-03-27T14:25:45.494Z,6.3
2023-03-27T14:26:52.177Z,6.3
2023-03-27T14:27:59.102Z,6.3
2023-03-27T14:30:13.445Z,6.4
2023-03-27T14:31:20.455Z,6.3
2023-03-27T14:32:27.142Z,6.3
2023-03-27T14:33:34.301Z,6.3
2023-03-27T14:34:53.332Z,6.3
2023-03-27T14:35:48.435Z,6.3
2023-03-27T14:36:55.564Z,6.3
2023-03-27T14:38:02.126Z,6.3
2023-03-27T14:39:09.157Z,6.3
2023-03-27T14:40:16.379Z,6.4
2023-03-27T14:41:23.475Z,6.3
2023-03-27T14:42:32.634Z,6.4
2023-03-27T14:43:37.022Z,6.4
2023-03-27T14:44:44.216Z,6.4
2023-03-27T14:45:51.368Z,6.4
2023-03-27T14:46:58.416Z,6.3
2023-03-27T14:48:05.498Z,6.3
2023-03-27T14:49:12.093Z,6.4
2023-03-27T14:50:19.137Z,6.3
2023-03-27T14:51:26.345Z,6.3
2023-03-27T14:52:33.498Z,6.4
2023-03-27T14:53:39.983Z,6.3
2023-03-27T14:54:55.179Z,6.3
2023-03-27T14:55:54.314Z,6.3
2023-03-27T14:57:01.322Z,6.3
2023-03-27T14:58:10.932Z,6.3
2023-03-27T14:59:15.056Z,6.3
2023-03-27T15:01:29.269Z,6.4
2023-03-27T15:02:36.428Z,6.4
2023-03-27T15:03:43.401Z,6.3
2023-03-27T15:04:50.078Z,6.3
2023-03-27T15:05:57.540Z,6.3
2023-03-27T15:07:04.190Z,6.3
2023-03-27T15:08:11.315Z,6.3
2023-03-27T15:09:18.506Z,6.3
2023-03-27T15:10:25.099Z,6.3
2023-03-27T15:11:32.095Z,6.2
2023-03-27T15:12:39.274Z,6.2
2023-03-27T15:13:48.011Z,6.2
2023-03-27T15:14:53.569Z,6.2
2023-03-27T15:16:00.125Z,6.2
2023-03-27T15:17:07.347Z,6.2
2023-03-27T15:18:14.274Z,6.3
2023-03-27T15:19:21.333Z,6.3
2023-03-27T15:20:28.438Z,6.2
2023-03-27T15:21:35.080Z,6.1
2023-03-27T15:22:42.220Z,6.1
2023-03-27T15:23:49.353Z,6.2
2023-03-27T15:24:56.485Z,6.1
2023-03-27T15:26:03.514Z,6.1
2023-03-27T15:27:10.108Z,6.1
2023-03-27T15:28:17.204Z,6.1
2023-03-27T15:29:24.308Z,6.1
2023-03-27T15:30:31.405Z,6.1
2023-03-27T15:31:38.460Z,6.2
2023-03-27T15:32:45.053Z,6.1
2023-03-27T15:33:52.220Z,6.1
2023-03-27T15:34:59.309Z,6.1